createdAt,value
2019-03-22T00:00:31.842Z,102723.80
2019-03-22T00:02:07.006Z,102721.33
2019-03-22T00:03:42.311Z,102722.98
2019-03-22T00:05:17.492Z,102720.23
2019-03-22T00:06:52.793Z,102719.95
2019-03-22T00:08:27.998Z,102713.32
2019-03-22T00:10:03.393Z,102717.70
2019-03-22T00:11:38.678Z,102721.59
2019-03-22T00:13:13.854Z,102713.92
2019-03-22T00:14:49.037Z,102716.03
2019-03-22T00:16:24.228Z,102710.50
2019-03-22T00:17:59.472Z,102703.55
2019-03-22T00:19:34.714Z,102705.19
2019-03-22T00:21:09.895Z,102702.03
2019-03-22T00:22:45.110Z,102708.44
2019-03-22T00:24:20.336Z,102714.02
2019-03-22T00:25:55.585Z,102714.20
2019-03-22T00:27:30.747Z,102714.75
2019-03-22T00:29:05.930Z,102711.17
2019-03-22T00:30:41.128Z,102710.86
2019-03-22T00:32:16.312Z,102710.12
2019-03-22T00:33:51.618Z,102708.89
2019-03-22T00:35:26.796Z,102704.55
2019-03-22T00:37:01.981Z,102705.36
2019-03-22T00:38:37.166Z,102704.82
2019-03-22T00:40:12.681Z,102709.94
2019-03-22T00:41:48.855Z,102705.27
2019-03-22T00:43:24.024Z,102705.27
2019-03-22T00:44:59.210Z,102701.44
2019-03-22T00:46:34.383Z,102698.79
2019-03-22T00:48:09.584Z,102701.44
2019-03-22T00:49:44.759Z,102700.43
2019-03-22T00:51:19.940Z,102699.50
2019-03-22T00:52:55.113Z,102697.86
2019-03-22T00:54:30.297Z,102694.80
2019-03-22T00:56:05.586Z,102691.96
2019-03-22T00:57:40.820Z,102695.30
2019-03-22T00:59:15.974Z,102695.78
2019-03-22T01:00:52.439Z,102702.86
2019-03-22T01:02:27.808Z,102702.62
2019-03-22T01:04:03.098Z,102702.94
2019-03-22T01:05:38.278Z,102694.06
2019-03-22T01:07:13.449Z,102696.88
2019-03-22T01:08:48.694Z,102698.25
2019-03-22T01:10:23.887Z,102699.28
2019-03-22T01:11:59.117Z,102697.48
2019-03-22T01:13:34.338Z,102693.59
2019-03-22T01:15:10.328Z,102695.31
2019-03-22T01:16:45.500Z,102689.77
2019-03-22T01:18:20.684Z,102689.94
2019-03-22T01:19:55.916Z,102690.46
2019-03-22T01:21:31.132Z,102687.89
2019-03-22T01:23:06.301Z,102687.23
2019-03-22T01:24:41.506Z,102689.94
2019-03-22T01:26:16.689Z,102686.83
2019-03-22T01:27:51.893Z,102687.28
2019-03-22T01:29:27.068Z,102691.44
2019-03-22T01:31:02.239Z,102692.42
2019-03-22T01:32:37.430Z,102698.32
2019-03-22T01:34:12.604Z,102705.95
2019-03-22T01:35:47.777Z,102707.02
2019-03-22T01:37:22.966Z,102707.42
2019-03-22T01:38:58.152Z,102700.56
2019-03-22T01:40:33.651Z,102700.98
2019-03-22T01:42:09.788Z,102695.06
2019-03-22T01:43:45.039Z,102697.39
2019-03-22T01:45:20.332Z,102694.83
2019-03-22T01:46:55.505Z,102694.61
2019-03-22T01:48:30.979Z,102685.73
2019-03-22T01:50:07.702Z,102685.31
2019-03-22T01:51:42.881Z,102683.70
2019-03-22T01:53:18.094Z,102679.52
2019-03-22T01:54:53.282Z,102681.47
2019-03-22T01:56:28.453Z,102684.43
2019-03-22T01:58:03.708Z,102674.80
2019-03-22T01:59:38.889Z,102679.56
2019-03-22T02:01:14.066Z,102674.05
2019-03-22T02:02:49.286Z,102672.52
2019-03-22T02:04:24.469Z,102666.91
2019-03-22T02:06:02.425Z,102676.45
2019-03-22T02:07:37.612Z,102678.89
2019-03-22T02:09:13.203Z,102674.81
2019-03-22T02:10:48.378Z,102674.39
2019-03-22T02:12:24.005Z,102680.01
2019-03-22T02:13:59.228Z,102678.36
2019-03-22T02:15:34.461Z,102680.52
2019-03-22T02:17:09.638Z,102676.32
2019-03-22T02:18:45.974Z,102669.14
2019-03-22T02:20:27.235Z,102672.78
2019-03-22T02:22:02.464Z,102670.82
2019-03-22T02:23:37.679Z,102672.86
2019-03-22T02:25:13.026Z,102674.22
2019-03-22T02:26:48.200Z,102669.00
2019-03-22T02:28:23.398Z,102672.43
2019-03-22T02:29:58.563Z,102669.86
2019-03-22T02:31:33.738Z,102670.78
2019-03-22T02:33:08.934Z,102671.61
2019-03-22T02:34:44.126Z,102679.58
2019-03-22T02:36:19.324Z,102665.81
2019-03-22T02:37:54.493Z,102668.64
2019-03-22T02:39:29.922Z,102664.92
2019-03-22T02:41:05.676Z,102670.85
2019-03-22T02:42:40.882Z,102668.78
2019-03-22T02:44:16.033Z,102677.22
2019-03-22T02:45:51.230Z,102673.43
2019-03-22T02:47:26.451Z,102675.08
2019-03-22T02:49:01.652Z,102670.61
2019-03-22T02:50:36.906Z,102664.78
2019-03-22T02:52:12.105Z,102664.48
2019-03-22T02:53:47.285Z,102662.23
2019-03-22T02:55:22.473Z,102662.02
2019-03-22T02:56:57.693Z,102660.41
2019-03-22T02:58:32.880Z,102661.23
2019-03-22T03:00:09.412Z,102662.55
2019-03-22T03:01:44.604Z,102664.16
2019-03-22T03:03:19.852Z,102666.05
2019-03-22T03:04:55.112Z,102667.26
2019-03-22T03:06:30.320Z,102664.37
2019-03-22T03:08:05.571Z,102668.20
2019-03-22T03:09:40.775Z,102665.55
2019-03-22T03:11:15.956Z,102664.53
2019-03-22T03:12:51.139Z,102661.10
2019-03-22T03:14:26.368Z,102660.45
2019-03-22T03:16:01.557Z,102661.86
2019-03-22T03:17:36.782Z,102660.13
2019-03-22T03:19:11.966Z,102654.23
2019-03-22T03:20:47.174Z,102650.86
2019-03-22T03:22:22.383Z,102649.95
2019-03-22T03:23:57.584Z,102639.87
2019-03-22T03:25:32.778Z,102644.66
2019-03-22T03:27:07.984Z,102642.69
2019-03-22T03:28:43.172Z,102641.11
2019-03-22T03:30:19.355Z,102642.94
2019-03-22T03:31:54.592Z,102642.41
2019-03-22T03:33:29.893Z,102643.53
2019-03-22T03:35:06.233Z,102641.27
2019-03-22T03:36:41.499Z,102639.63
2019-03-22T03:38:16.731Z,102647.88
2019-03-22T03:39:51.918Z,102647.72
2019-03-22T03:41:27.113Z,102646.22
2019-03-22T03:43:02.371Z,102649.95
2019-03-22T03:44:37.592Z,102653.59
2019-03-22T03:46:12.910Z,102649.05
2019-03-22T03:47:49.182Z,102650.86
2019-03-22T03:49:24.366Z,102653.95
2019-03-22T03:50:59.619Z,102651.81
2019-03-22T03:52:34.790Z,102651.42
2019-03-22T03:54:09.978Z,102653.87
2019-03-22T03:55:45.176Z,102647.52
2019-03-22T03:57:20.362Z,102642.04
2019-03-22T03:58:55.582Z,102641.22
2019-03-22T04:00:30.857Z,102645.65
2019-03-22T04:02:06.057Z,102640.05
2019-03-22T04:03:41.230Z,102643.83
2019-03-22T04:05:16.424Z,102641.04
2019-03-22T04:06:51.630Z,102637.45
2019-03-22T04:08:26.809Z,102643.74
2019-03-22T04:10:02.149Z,102641.83
2019-03-22T04:11:37.472Z,102636.55
2019-03-22T04:13:12.706Z,102642.33
2019-03-22T04:14:47.927Z,102650.14
2019-03-22T04:16:23.112Z,102640.10
2019-03-22T04:17:58.347Z,102644.56
2019-03-22T04:19:33.599Z,102644.48
2019-03-22T04:21:08.792Z,102640.95
2019-03-22T04:22:44.063Z,102642.06
2019-03-22T04:24:19.251Z,102638.22
2019-03-22T04:25:54.426Z,102642.06
2019-03-22T04:27:29.634Z,102636.90
2019-03-22T04:29:07.790Z,102635.61
2019-03-22T04:30:41.709Z,102634.97
2019-03-22T04:32:17.207Z,102630.45
2019-03-22T04:33:52.400Z,102629.63
2019-03-22T04:35:27.614Z,102630.62
2019-03-22T04:37:02.808Z,102630.67
2019-03-22T04:38:38.008Z,102631.38
2019-03-22T04:40:26.978Z,102632.77
2019-03-22T04:42:02.190Z,102631.62
2019-03-22T04:43:37.443Z,102643.73
2019-03-22T04:45:12.792Z,102644.80
2019-03-22T04:46:48.070Z,102641.39
2019-03-22T04:48:31.458Z,102641.78
2019-03-22T04:50:07.016Z,102646.83
2019-03-22T04:51:42.426Z,102644.30
2019-03-22T04:53:21.801Z,102639.31
2019-03-22T04:54:58.477Z,102638.51
2019-03-22T04:56:35.141Z,102640.47
2019-03-22T04:58:10.507Z,102641.86
2019-03-22T04:59:47.654Z,102638.92
2019-03-22T05:01:23.966Z,102649.28
2019-03-22T05:02:59.652Z,102635.14
2019-03-22T05:04:35.339Z,102636.58
2019-03-22T05:06:11.548Z,102642.83
2019-03-22T05:07:47.016Z,102648.70
2019-03-22T05:09:23.303Z,102645.83
2019-03-22T05:10:59.934Z,102654.45
2019-03-22T05:12:35.248Z,102656.71
2019-03-22T05:14:10.687Z,102658.92
2019-03-22T05:15:46.335Z,102663.03
2019-03-22T05:17:21.584Z,102661.78
2019-03-22T05:18:57.841Z,102665.55
2019-03-22T05:20:34.571Z,102664.23
2019-03-22T05:22:11.829Z,102666.02
2019-03-22T05:23:48.581Z,102664.16
2019-03-22T05:25:23.942Z,102673.03
2019-03-22T05:27:00.402Z,102676.80
2019-03-22T05:28:35.685Z,102677.50
2019-03-22T05:30:22.669Z,102682.25
2019-03-22T05:32:04.605Z,102675.52
2019-03-22T05:33:40.858Z,102680.27
2019-03-22T05:35:15.979Z,102683.09
2019-03-22T05:36:51.155Z,102683.91
2019-03-22T05:38:26.355Z,102683.87
2019-03-22T05:40:01.563Z,102685.32
2019-03-22T05:41:36.843Z,102687.20
2019-03-22T05:43:12.984Z,102694.80
2019-03-22T05:44:48.236Z,102695.16
2019-03-22T05:46:23.526Z,102694.80
2019-03-22T05:47:59.668Z,102694.63
2019-03-22T05:49:34.848Z,102694.28
2019-03-22T05:51:10.056Z,102695.04
2019-03-22T05:52:45.231Z,102694.89
2019-03-22T05:54:20.413Z,102690.54
2019-03-22T05:55:55.629Z,102691.75
2019-03-22T05:57:30.829Z,102696.61
2019-03-22T05:59:06.081Z,102701.88
2019-03-22T06:00:41.271Z,102697.91
2019-03-22T06:02:16.465Z,102703.44
2019-03-22T06:03:51.654Z,102695.45
2019-03-22T06:05:26.858Z,102694.22
2019-03-22T06:07:02.019Z,102693.20
2019-03-22T06:08:37.229Z,102704.41
2019-03-22T06:10:12.550Z,102705.43
2019-03-22T06:11:47.884Z,102708.72
2019-03-22T06:13:23.077Z,102709.02
2019-03-22T06:14:58.279Z,102712.59
2019-03-22T06:16:33.463Z,102716.73
2019-03-22T06:18:08.686Z,102714.36
2019-03-22T06:19:43.901Z,102713.55
2019-03-22T06:21:19.093Z,102717.78
2019-03-22T06:22:54.288Z,102715.29
2019-03-22T06:24:29.487Z,102714.87
2019-03-22T06:26:04.690Z,102721.59
2019-03-22T06:27:39.935Z,102717.69
2019-03-22T06:29:15.190Z,102716.23
2019-03-22T06:30:50.379Z,102721.11
2019-03-22T06:32:25.582Z,102722.73
2019-03-22T06:34:00.799Z,102715.35
2019-03-22T06:35:36.021Z,102712.35
2019-03-22T06:37:11.307Z,102715.23
2019-03-22T06:38:46.517Z,102710.50
2019-03-22T06:40:21.752Z,102706.80
2019-03-22T06:41:56.958Z,102712.09
2019-03-22T06:43:32.135Z,102707.05
2019-03-22T06:45:07.817Z,102711.41
2019-03-22T06:46:43.060Z,102706.91
2019-03-22T06:48:18.322Z,102711.73
2019-03-22T06:49:53.527Z,102709.70
2019-03-22T06:51:28.830Z,102715.42
2019-03-22T06:53:05.185Z,102714.66
2019-03-22T06:54:40.384Z,102716.53
2019-03-22T06:56:15.587Z,102719.50
2019-03-22T06:57:50.785Z,102718.86
2019-03-22T06:59:26.318Z,102718.08
2019-03-22T07:01:01.508Z,102712.45
2019-03-22T07:02:36.720Z,102716.89
2019-03-22T07:04:11.910Z,102713.10
2019-03-22T07:05:47.091Z,102712.62
2019-03-22T07:07:22.545Z,102711.99
2019-03-22T07:08:57.807Z,102712.55
2019-03-22T07:10:32.975Z,102707.92
2019-03-22T07:12:08.248Z,102710.89
2019-03-22T07:13:43.465Z,102716.06
2019-03-22T07:15:18.633Z,102719.38
2019-03-22T07:16:53.837Z,102720.25
2019-03-22T07:18:29.064Z,102721.59
2019-03-22T07:20:04.662Z,102728.22
2019-03-22T07:21:39.919Z,102724.14
2019-03-22T07:23:15.109Z,102719.73
2019-03-22T07:24:50.314Z,102719.91
2019-03-22T07:26:25.520Z,102715.92
2019-03-22T07:28:00.710Z,102719.34
2019-03-22T07:29:35.880Z,102714.61
2019-03-22T07:31:11.141Z,102711.34
2019-03-22T07:32:47.477Z,102718.23
2019-03-22T07:34:22.676Z,102718.48
2019-03-22T07:35:57.857Z,102721.78
2019-03-22T07:37:33.064Z,102724.70
2019-03-22T07:39:08.858Z,102724.40
2019-03-22T07:40:44.071Z,102721.55
2019-03-22T07:42:19.402Z,102726.42
2019-03-22T07:43:54.534Z,102725.98
2019-03-22T07:45:29.789Z,102725.09
2019-03-22T07:47:05.194Z,102724.27
2019-03-22T07:48:40.411Z,102724.23
2019-03-22T07:50:15.707Z,102723.58
2019-03-22T07:51:50.929Z,102720.42
2019-03-22T07:53:26.102Z,102707.92
2019-03-22T07:55:01.276Z,102714.97
2019-03-22T07:56:45.547Z,102700.72
2019-03-22T07:58:20.860Z,102701.72
2019-03-22T07:59:56.028Z,102693.72
2019-03-22T08:01:31.235Z,102698.30
2019-03-22T08:03:06.440Z,102697.02
2019-03-22T08:04:41.638Z,102697.11
2019-03-22T08:06:16.880Z,102704.66
2019-03-22T08:07:52.075Z,102706.48
2019-03-22T08:09:27.335Z,102704.27
2019-03-22T08:11:02.574Z,102707.98
2019-03-22T08:12:37.907Z,102711.03
2019-03-22T08:14:13.251Z,102714.06
2019-03-22T08:15:48.447Z,102708.66
2019-03-22T08:17:23.667Z,102710.40
2019-03-22T08:18:58.860Z,102709.88
2019-03-22T08:20:34.103Z,102704.41
2019-03-22T08:22:09.333Z,102701.81
2019-03-22T08:23:44.551Z,102692.58
2019-03-22T08:25:20.146Z,102692.58
2019-03-22T08:26:55.457Z,102703.22
2019-03-22T08:28:30.753Z,102705.26
2019-03-22T08:30:06.708Z,102694.81
2019-03-22T08:31:41.905Z,102694.81
2019-03-22T08:33:17.252Z,102691.37
2019-03-22T08:34:52.442Z,102688.67
2019-03-22T08:36:27.611Z,102684.56
2019-03-22T08:38:02.827Z,102679.01
2019-03-22T08:39:38.040Z,102686.77
2019-03-22T08:41:13.343Z,102682.11
2019-03-22T08:42:48.504Z,102686.02
2019-03-22T08:44:24.019Z,102688.36
2019-03-22T08:45:59.216Z,102693.58
2019-03-22T08:47:34.760Z,102692.91
2019-03-22T08:49:10.102Z,102693.97
2019-03-22T08:50:45.371Z,102695.53
2019-03-22T08:52:20.645Z,102691.87
2019-03-22T08:53:55.980Z,102689.48
2019-03-22T08:55:31.191Z,102686.11
2019-03-22T08:57:06.549Z,102682.59
2019-03-22T08:58:41.860Z,102684.58
2019-03-22T09:00:17.332Z,102678.92
2019-03-22T09:01:52.532Z,102681.23
2019-03-22T09:03:27.791Z,102672.27
2019-03-22T09:05:02.977Z,102669.72
2019-03-22T09:06:38.162Z,102668.81
2019-03-22T09:08:15.995Z,102663.43
2019-03-22T09:09:50.317Z,102674.31
2019-03-22T09:11:25.873Z,102672.16
2019-03-22T09:13:01.058Z,102665.84
2019-03-22T09:14:36.219Z,102666.00
2019-03-22T09:16:11.455Z,102660.60
2019-03-22T09:17:47.714Z,102657.98
2019-03-22T09:19:22.954Z,102670.05
2019-03-22T09:20:58.181Z,102666.12
2019-03-22T09:22:33.389Z,102662.62
2019-03-22T09:24:08.552Z,102664.31
2019-03-22T09:25:43.811Z,102663.31
2019-03-22T09:27:19.039Z,102662.20
2019-03-22T09:28:54.320Z,102655.58
2019-03-22T09:30:32.251Z,102658.25
2019-03-22T09:32:07.550Z,102649.56
2019-03-22T09:33:42.756Z,102645.12
2019-03-22T09:35:17.925Z,102645.42
2019-03-22T09:36:53.200Z,102644.09
2019-03-22T09:38:28.689Z,102644.86
2019-03-22T09:40:04.350Z,102650.61
2019-03-22T09:41:39.538Z,102643.37
2019-03-22T09:43:14.772Z,102643.34
2019-03-22T09:44:50.129Z,102642.53
2019-03-22T09:46:25.353Z,102637.40
2019-03-22T09:48:01.509Z,102639.48
2019-03-22T09:49:37.478Z,102634.62
2019-03-22T09:51:12.639Z,102627.27
2019-03-22T09:52:47.942Z,102629.69
2019-03-22T09:54:24.206Z,102626.84
2019-03-22T09:55:59.410Z,102635.51
2019-03-22T09:57:34.671Z,102630.42
2019-03-22T09:59:09.954Z,102627.16
2019-03-22T10:00:48.366Z,102627.16
2019-03-22T10:02:22.080Z,102630.42
2019-03-22T10:03:57.290Z,102624.73
2019-03-22T10:05:32.606Z,102623.37
2019-03-22T10:07:07.818Z,102624.04
2019-03-22T10:08:43.044Z,102614.78
2019-03-22T10:10:18.253Z,102621.22
2019-03-22T10:11:53.431Z,102615.73
2019-03-22T10:13:28.607Z,102616.64
2019-03-22T10:15:03.889Z,102620.36
2019-03-22T10:16:39.104Z,102612.72
2019-03-22T10:18:14.298Z,102617.22
2019-03-22T10:19:51.797Z,102607.20
2019-03-22T10:21:27.100Z,102605.86
2019-03-22T10:23:02.324Z,102613.94
2019-03-22T10:24:38.517Z,102613.02
2019-03-22T10:26:13.716Z,102605.58
2019-03-22T10:27:48.897Z,102600.25
2019-03-22T10:29:24.164Z,102608.28
2019-03-22T10:30:59.376Z,102605.59
2019-03-22T10:32:34.714Z,102601.06
2019-03-22T10:34:09.916Z,102605.67
2019-03-22T10:35:45.198Z,102605.23
2019-03-22T10:37:20.465Z,102598.31
2019-03-22T10:38:55.717Z,102598.87
2019-03-22T10:40:30.922Z,102597.03
2019-03-22T10:42:06.231Z,102593.97
2019-03-22T10:43:41.429Z,102593.40
2019-03-22T10:45:16.977Z,102590.62
2019-03-22T10:46:52.183Z,102585.52
2019-03-22T10:48:27.463Z,102583.90
2019-03-22T10:50:02.620Z,102585.59
2019-03-22T10:51:38.007Z,102582.38
2019-03-22T10:53:13.270Z,102575.04
2019-03-22T10:54:48.562Z,102580.50
2019-03-22T10:56:25.062Z,102577.45
2019-03-22T10:58:00.321Z,102576.48
2019-03-22T10:59:35.528Z,102579.45
2019-03-22T11:01:10.754Z,102576.14
2019-03-22T11:02:45.965Z,102571.52
2019-03-22T11:04:21.184Z,102570.32
2019-03-22T11:05:56.362Z,102575.16
2019-03-22T11:07:31.569Z,102576.22
2019-03-22T11:09:08.746Z,102569.25
2019-03-22T11:10:43.938Z,102564.61
2019-03-22T11:12:19.147Z,102568.67
2019-03-22T11:13:54.435Z,102569.76
2019-03-22T11:15:29.766Z,102560.34
2019-03-22T11:17:05.080Z,102556.27
2019-03-22T11:18:40.337Z,102561.94
2019-03-22T11:20:16.534Z,102561.94
2019-03-22T11:21:51.743Z,102553.33
2019-03-22T11:23:26.952Z,102556.57
2019-03-22T11:25:02.154Z,102549.83
2019-03-22T11:26:38.399Z,102547.38
2019-03-22T11:28:13.647Z,102541.49
2019-03-22T11:29:48.868Z,102543.38
2019-03-22T11:31:28.581Z,102529.64
2019-03-22T11:33:01.145Z,102521.75
2019-03-22T11:34:37.469Z,102521.75
2019-03-22T11:36:12.681Z,102486.26
2019-03-22T11:37:47.961Z,102518.87
2019-03-22T11:39:23.221Z,102518.87
2019-03-22T11:40:58.424Z,102517.48
2019-03-22T11:42:33.612Z,102516.70
2019-03-22T11:44:08.916Z,102510.25
2019-03-22T11:45:44.136Z,102511.25
2019-03-22T11:47:19.336Z,102512.13
2019-03-22T11:48:54.622Z,102512.12
2019-03-22T11:50:29.938Z,102502.97
2019-03-22T11:52:05.426Z,102495.45
2019-03-22T11:53:40.662Z,102500.27
2019-03-22T11:55:16.239Z,102498.39
2019-03-22T11:56:52.595Z,102494.06
2019-03-22T11:58:27.823Z,102490.04
2019-03-22T12:00:05.051Z,102501.06
2019-03-22T12:01:41.825Z,102494.34
2019-03-22T12:03:17.053Z,102490.84
2019-03-22T12:04:52.254Z,102486.80
2019-03-22T12:06:27.570Z,102488.44
2019-03-22T12:08:02.778Z,102484.92
2019-03-22T12:09:37.950Z,102485.72
2019-03-22T12:11:13.130Z,102480.61
2019-03-22T12:12:48.619Z,102481.42
2019-03-22T12:14:23.867Z,102477.66
2019-03-22T12:15:59.063Z,102473.35
2019-03-22T12:17:34.315Z,102474.66
2019-03-22T12:19:09.528Z,102469.30
2019-03-22T12:20:44.788Z,102466.88
2019-03-22T12:22:20.007Z,102465.27
2019-03-22T12:23:55.200Z,102462.86
2019-03-22T12:25:30.449Z,102448.56
2019-03-22T12:27:05.659Z,102453.70
2019-03-22T12:28:40.867Z,102451.81
2019-03-22T12:30:16.749Z,102447.98
2019-03-22T12:31:51.958Z,102458.54
2019-03-22T12:33:27.129Z,102439.95
2019-03-22T12:35:02.363Z,102448.84
2019-03-22T12:36:37.586Z,102436.45
2019-03-22T12:38:12.916Z,102428.36
2019-03-22T12:39:48.184Z,102430.47
2019-03-22T12:41:23.387Z,102429.61
2019-03-22T12:42:58.592Z,102423.45
2019-03-22T12:44:33.849Z,102424.34
2019-03-22T12:46:09.030Z,102429.96
2019-03-22T12:47:44.223Z,102417.59
2019-03-22T12:49:19.469Z,102419.21
2019-03-22T12:50:54.696Z,102419.50
2019-03-22T12:52:31.391Z,102403.06
2019-03-22T12:54:07.731Z,102398.98
2019-03-22T12:55:42.923Z,102403.63
2019-03-22T12:57:18.116Z,102401.18
2019-03-22T12:58:53.321Z,102399.86
2019-03-22T13:00:28.636Z,102402.77
2019-03-22T13:02:03.919Z,102388.50
2019-03-22T13:03:39.125Z,102386.64
2019-03-22T13:05:16.263Z,102383.92
2019-03-22T13:06:53.125Z,102373.13
2019-03-22T13:08:28.555Z,102382.82
2019-03-22T13:10:04.647Z,102377.36
2019-03-22T13:11:39.879Z,102379.24
2019-03-22T13:13:15.081Z,102368.72
2019-03-22T13:14:50.567Z,102373.08
2019-03-22T13:16:25.850Z,102375.47
2019-03-22T13:18:01.071Z,102368.01
2019-03-22T13:19:36.281Z,102367.42
2019-03-22T13:21:11.479Z,102363.91
2019-03-22T13:22:46.752Z,102356.11
2019-03-22T13:24:21.975Z,102350.44
2019-03-22T13:25:57.173Z,102358.98
2019-03-22T13:27:32.348Z,102356.39
2019-03-22T13:29:07.587Z,102350.48
2019-03-22T13:30:42.771Z,102349.63
2019-03-22T13:32:17.973Z,102359.54
2019-03-22T13:33:53.189Z,102341.87
2019-03-22T13:35:28.503Z,102349.91
2019-03-22T13:37:03.874Z,102349.66
2019-03-22T13:38:39.148Z,102341.52
2019-03-22T13:40:14.474Z,102347.38
2019-03-22T13:41:49.804Z,102340.09
2019-03-22T13:43:24.968Z,102337.69
2019-03-22T13:45:00.338Z,102335.87
2019-03-22T13:46:40.175Z,102350.06
2019-03-22T13:48:12.579Z,102338.77
2019-03-22T13:49:47.844Z,102343.02
2019-03-22T13:51:23.079Z,102335.59
2019-03-22T13:52:58.302Z,102331.31
2019-03-22T13:54:33.508Z,102336.88
2019-03-22T13:56:08.729Z,102332.04
2019-03-22T13:57:43.953Z,102327.77
2019-03-22T13:59:19.161Z,102329.53
2019-03-22T14:00:54.428Z,102323.05
2019-03-22T14:02:29.601Z,102318.48
2019-03-22T14:04:04.837Z,102314.90
2019-03-22T14:05:40.144Z,102314.71
2019-03-22T14:07:15.429Z,102309.08
2019-03-22T14:08:50.638Z,102303.66
2019-03-22T14:10:33.436Z,102313.66
2019-03-22T14:12:08.641Z,102310.37
2019-03-22T14:13:43.832Z,102298.54
2019-03-22T14:15:19.066Z,102302.79
2019-03-22T14:16:54.243Z,102302.83
2019-03-22T14:18:29.439Z,102297.46
2019-03-22T14:20:11.263Z,102289.88
2019-03-22T14:21:42.107Z,102297.37
2019-03-22T14:23:17.328Z,102291.10
2019-03-22T14:24:52.547Z,102292.84
2019-03-22T14:26:27.726Z,102287.48
2019-03-22T14:28:02.937Z,102292.36
2019-03-22T14:29:38.150Z,102276.27
2019-03-22T14:31:13.397Z,102289.94
2019-03-22T14:32:48.675Z,102286.41
2019-03-22T14:34:23.923Z,102292.34
2019-03-22T14:35:59.149Z,102286.41
2019-03-22T14:37:34.354Z,102285.89
2019-03-22T14:39:09.794Z,102279.72
2019-03-22T14:40:45.381Z,102277.00
2019-03-22T14:42:20.613Z,102279.03
2019-03-22T14:43:55.847Z,102275.26
2019-03-22T14:45:32.216Z,102273.61
2019-03-22T14:47:12.983Z,102271.88
2019-03-22T14:48:48.991Z,102269.16
2019-03-22T14:50:24.298Z,102277.92
2019-03-22T14:51:59.489Z,102268.28
2019-03-22T14:53:34.711Z,102261.03
2019-03-22T14:55:11.149Z,102259.38
2019-03-22T14:56:46.735Z,102262.47
2019-03-22T14:58:22.048Z,102260.22
2019-03-22T14:59:59.310Z,102251.87
2019-03-22T15:01:34.746Z,102247.75
2019-03-22T15:03:26.326Z,102245.36
2019-03-22T15:05:01.528Z,102244.21
2019-03-22T15:06:37.706Z,102235.86
2019-03-22T15:08:12.906Z,102235.51
2019-03-22T15:09:48.197Z,102231.64
2019-03-22T15:11:23.467Z,102233.47
2019-03-22T15:12:58.671Z,102230.50
2019-03-22T15:14:53.394Z,102230.53
2019-03-22T15:16:47.678Z,102230.37
2019-03-22T15:18:34.650Z,102228.72
2019-03-22T15:20:23.027Z,102227.33
2019-03-22T15:22:14.246Z,102220.05
2019-03-22T15:24:14.386Z,102214.43
2019-03-22T15:26:07.506Z,102219.71
2019-03-22T15:27:55.949Z,102218.44
2019-03-22T15:29:40.500Z,102212.27
2019-03-22T15:31:33.717Z,102207.61
2019-03-22T15:33:34.132Z,102217.39
2019-03-22T15:37:30.021Z,102213.11
2019-03-22T15:39:29.591Z,102201.48
2019-03-22T15:41:05.182Z,102205.80
2019-03-22T15:42:40.459Z,102213.18
2019-03-22T15:44:15.820Z,102207.22
2019-03-22T15:45:51.163Z,102206.71
2019-03-22T15:47:26.457Z,102199.98
2019-03-22T15:49:01.622Z,102199.98
2019-03-22T15:50:36.926Z,102198.93
2019-03-22T15:52:12.122Z,102197.52
2019-03-22T15:53:47.352Z,102199.67
2019-03-22T15:55:22.658Z,102198.32
2019-03-22T15:56:57.933Z,102195.90
2019-03-22T15:58:34.231Z,102179.22
2019-03-22T16:00:12.782Z,102179.22
2019-03-22T16:01:49.069Z,102187.84
2019-03-22T16:03:24.242Z,102179.29
2019-03-22T16:04:59.481Z,102179.29
2019-03-22T16:06:34.673Z,102178.27
2019-03-22T16:08:09.855Z,102179.49
2019-03-22T16:09:45.117Z,102176.26
2019-03-22T16:11:20.398Z,102174.67
2019-03-22T16:12:55.827Z,102169.86
2019-03-22T16:14:31.532Z,102172.79
2019-03-22T16:16:07.075Z,102175.22
2019-03-22T16:17:42.367Z,102165.55
2019-03-22T16:19:17.937Z,102162.01
2019-03-22T16:20:59.877Z,102162.65
2019-03-22T16:22:30.038Z,102161.84
2019-03-22T16:24:05.221Z,102161.30
2019-03-22T16:25:40.449Z,102167.80
2019-03-22T16:27:15.723Z,102155.11
2019-03-22T16:28:50.914Z,102173.24
2019-03-22T16:30:26.146Z,102157.02
2019-03-22T16:32:01.354Z,102161.12
2019-03-22T16:33:36.695Z,102159.48
2019-03-22T16:35:12.465Z,102151.97
2019-03-22T16:36:50.784Z,102153.37
2019-03-22T16:38:25.975Z,102149.81
2019-03-22T16:40:01.263Z,102149.81
2019-03-22T16:41:36.519Z,102150.14
2019-03-22T16:43:11.712Z,102151.00
2019-03-22T16:44:46.896Z,102154.20
2019-03-22T16:46:22.157Z,102151.27
2019-03-22T16:47:58.662Z,102150.48
2019-03-22T16:49:33.935Z,102148.12
2019-03-22T16:51:09.194Z,102147.52
2019-03-22T16:52:44.377Z,102144.08
2019-03-22T16:54:19.592Z,102148.38
2019-03-22T16:55:54.784Z,102147.87
2019-03-22T16:57:29.984Z,102140.05
2019-03-22T16:59:06.326Z,102142.02
2019-03-22T17:00:41.704Z,102137.45
2019-03-22T17:02:17.181Z,102137.45
2019-03-22T17:03:52.407Z,102143.65
2019-03-22T17:05:27.679Z,102143.65
2019-03-22T17:07:02.888Z,102140.97
2019-03-22T17:08:38.081Z,102136.22
2019-03-22T17:10:13.351Z,102139.13
2019-03-22T17:11:48.574Z,102139.13
2019-03-22T17:13:23.846Z,102132.95
2019-03-22T17:14:59.123Z,102133.77
2019-03-22T17:16:34.521Z,102128.68
2019-03-22T17:18:09.718Z,102132.47
2019-03-22T17:19:45.071Z,102133.53
2019-03-22T17:21:20.284Z,102126.28
2019-03-22T17:22:55.585Z,102126.33
2019-03-22T17:24:30.850Z,102127.91
2019-03-22T17:26:06.127Z,102127.91
2019-03-22T17:27:41.328Z,102125.80
2019-03-22T17:29:16.549Z,102130.89
2019-03-22T17:30:51.819Z,102116.41
2019-03-22T17:32:27.046Z,102120.16
2019-03-22T17:34:02.232Z,102120.16
2019-03-22T17:35:37.417Z,102115.08
2019-03-22T17:37:12.618Z,102126.33
2019-03-22T17:38:47.798Z,102123.11
2019-03-22T17:40:22.988Z,102115.58
2019-03-22T17:41:59.798Z,102115.58
2019-03-22T17:43:36.216Z,102117.48
2019-03-22T17:45:12.038Z,102123.66
2019-03-22T17:46:47.231Z,102113.16
2019-03-22T17:48:22.429Z,102114.52
2019-03-22T17:49:57.709Z,102104.53
2019-03-22T17:51:32.878Z,102104.53
2019-03-22T17:53:08.164Z,102104.28
2019-03-22T17:54:43.372Z,102111.25
2019-03-22T17:56:18.696Z,102106.72
2019-03-22T17:57:54.018Z,102108.31
2019-03-22T17:59:29.218Z,102111.25
2019-03-22T18:01:04.624Z,102111.25
2019-03-22T18:02:39.824Z,102108.30
2019-03-22T18:04:23.853Z,102106.41
2019-03-22T18:05:51.935Z,102102.09
2019-03-22T18:07:27.331Z,102108.27
2019-03-22T18:09:02.528Z,102108.27
2019-03-22T18:10:38.989Z,102109.61
2019-03-22T18:12:14.248Z,102104.47
2019-03-22T18:13:49.471Z,102110.66
2019-03-22T18:15:24.677Z,102110.66